Time;durP1;ratioP1;P1;durP2;ratioP2;P2;SDS_P1;SDS_P2;PMS_P1;PMS_P2;Temp;Humidity;BMP_temperature;BMP_pressure;BME280_temperature;BME280_humidity;BME280_pressure;Samples;Min_cycle;Max_cycle;Signal;HPM_P1;HPM_P2
2021/11/11 00:00:43;;;;;;;31.53;17.60;;;;;;;9.36;84.05;102435.00;5054732;28;20273;-78
2021/11/11 00:03:08;;;;;;;32.87;17.53;;;;;;;9.31;84.17;102429.66;5053719;28;20273;-77
2021/11/11 00:05:34;;;;;;;34.63;18.33;;;;;;;9.32;84.51;102427.97;5052074;28;20213;-78
2021/11/11 00:08:00;;;;;;;35.70;18.77;;;;;;;9.31;84.57;102421.13;5042743;28;20191;-78
2021/11/11 00:10:27;;;;;;;31.67;19.37;;;;;;;9.33;84.76;102422.94;5030974;28;20238;-78
2021/11/11 00:12:54;;;;;;;38.67;21.67;;;;;;;9.26;85.43;102412.34;5030552;28;20183;-78
2021/11/11 00:15:21;;;;;;;41.40;22.77;;;;;;;9.21;86.10;102417.22;5033356;28;20189;-78
2021/11/11 00:17:48;;;;;;;42.77;23.23;;;;;;;9.16;86.82;102421.22;5030595;28;20300;-77
2021/11/11 00:20:17;;;;;;;45.00;23.47;;;;;;;9.18;87.20;102423.84;5030632;28;20218;-78
2021/11/11 00:22:45;;;;;;;47.43;25.13;;;;;;;9.17;87.05;102420.41;5043494;28;20224;-78
2021/11/11 00:25:16;;;;;;;46.33;24.50;;;;;;;9.17;87.34;102428.06;5050778;28;20190;-78
2021/11/11 00:27:42;;;;;;;43.50;23.90;;;;;;;9.15;87.49;102416.03;5051604;28;20178;-76
2021/11/11 00:30:10;;;;;;;44.37;23.40;;;;;;;9.15;87.54;102410.91;5051534;28;20220;-76
2021/11/11 00:32:36;;;;;;;45.67;22.80;;;;;;;9.16;87.74;102411.00;5049832;28;20182;-78
2021/11/11 00:35:15;;;;;;;42.77;23.43;;;;;;;9.15;87.11;102413.47;5038132;28;20283;-78
2021/11/11 00:37:41;;;;;;;53.67;25.47;;;;;;;9.15;88.29;102403.25;5050608;28;20256;-78
2021/11/11 00:40:08;;;;;;;58.00;27.03;;;;;;;9.07;88.22;102405.44;5051802;28;20212;-78
2021/11/11 00:42:34;;;;;;;51.60;27.13;;;;;;;9.04;88.86;102402.72;5041659;28;20261;-78
2021/11/11 00:44:59;;;;;;;55.63;27.83;;;;;;;9.07;88.68;102399.47;5050365;28;20225;-78
2021/11/11 00:47:25;;;;;;;61.10;29.47;;;;;;;9.03;88.96;102397.56;5049721;28;20182;-78
2021/11/11 00:49:51;;;;;;;55.70;29.43;;;;;;;9.00;89.30;102384.59;5030920;28;20990;-78
2021/11/11 00:52:17;;;;;;;55.87;29.70;;;;;;;9.02;89.57;102393.22;5030363;28;20178;-77
2021/11/11 00:54:43;;;;;;;52.00;27.77;;;;;;;9.01;90.18;102400.03;5035961;28;20247;-76
2021/11/11 00:57:20;;;;;;;56.53;28.97;;;;;;;9.00;90.24;102398.28;5050476;28;20305;-76
2021/11/11 00:59:46;;;;;;;54.07;29.60;;;;;;;8.99;89.70;102393.94;5044239;28;20297;-77
2021/11/11 01:02:12;;;;;;;58.73;30.43;;;;;;;9.01;89.58;102397.47;5030643;28;20635;-78
2021/11/11 01:04:39;;;;;;;48.93;28.30;;;;;;;9.03;89.85;102400.97;5030499;28;20197;-78
2021/11/11 01:07:07;;;;;;;50.80;27.77;;;;;;;9.01;90.48;102394.03;5013606;28;20182;-77
2021/11/11 01:09:34;;;;;;;57.17;30.67;;;;;;;9.00;90.89;102397.38;5013977;28;20222;-77
2021/11/11 01:11:59;;;;;;;56.80;29.10;;;;;;;8.99;90.61;102408.41;5030282;28;20188;-77
2021/11/11 01:14:25;;;;;;;51.43;29.73;;;;;;;9.01;90.98;102407.69;5038051;28;20194;-76
2021/11/11 01:16:53;;;;;;;53.60;29.60;;;;;;;9.02;90.23;102404.31;5049926;28;20197;-78
2021/11/11 01:19:20;;;;;;;56.63;30.63;;;;;;;9.05;90.72;102406.16;5051061;28;20209;-78
2021/11/11 01:21:45;;;;;;;60.13;29.57;;;;;;;9.06;90.13;102406.25;5050172;28;20194;-76
2021/11/11 01:24:11;;;;;;;53.33;29.57;;;;;;;9.07;90.12;102409.69;5067176;28;20196;-78
2021/11/11 01:26:36;;;;;;;59.30;29.17;;;;;;;9.06;90.06;102410.44;5050604;28;20231;-77
2021/11/11 01:29:04;;;;;;;63.87;31.40;;;;;;;9.05;89.68;102407.03;5066010;28;20533;-78
2021/11/11 01:31:30;;;;;;;49.80;28.47;;;;;;;9.08;89.71;102406.31;5050158;28;20276;-76
2021/11/11 01:33:56;;;;;;;52.73;27.67;;;;;;;9.10;88.98;102403.03;5033609;28;20220;-78
2021/11/11 01:36:22;;;;;;;53.70;28.73;;;;;;;9.09;89.71;102402.97;5033023;28;20273;-78
2021/11/11 01:38:54;;;;;;;55.73;29.77;;;;;;;9.12;89.25;102410.78;5067641;28;20201;-77
2021/11/11 01:41:23;;;;;;;51.40;29.77;;;;;;;9.12;88.68;102415.91;5049797;28;20213;-76
2021/11/11 01:43:49;;;;;;;54.80;28.37;;;;;;;9.13;88.97;102422.75;5019310;28;20663;-77
2021/11/11 01:46:16;;;;;;;48.87;27.93;;;;;;;9.15;89.43;102416.91;5049422;28;20177;-77
2021/11/11 01:48:42;;;;;;;56.80;30.47;;;;;;;9.16;89.17;102416.09;5050851;28;20212;-78
2021/11/11 01:51:15;;;;;;;55.67;28.53;;;;;;;9.17;88.69;102406.78;5050933;28;20236;-78
2021/11/11 01:53:52;;;;;;;61.47;30.50;;;;;;;9.18;88.28;102406.88;5047483;28;20682;-77
2021/11/11 01:56:19;;;;;;;54.90;29.67;;;;;;;9.18;88.47;102406.88;5014910;28;20206;-78
2021/11/11 01:58:45;;;;;;;61.93;32.13;;;;;;;9.18;89.39;102416.19;5030586;28;20579;-79
2021/11/11 02:01:12;;;;;;;71.93;34.30;;;;;;;9.17;89.19;102412.75;5031671;28;20202;-77
2021/11/11 02:03:40;;;;;;;66.00;34.67;;;;;;;9.13;89.42;102413.38;5014555;28;20194;-77
2021/11/11 02:06:09;;;;;;;69.93;35.13;;;;;;;9.09;89.82;102405.50;5030001;28;20656;-78
2021/11/11 02:08:53;;;;;;;75.63;36.67;;;;;;;9.07;90.02;102407.13;5050860;28;20193;-77
2021/11/11 02:11:23;;;;;;;79.63;36.50;;;;;;;9.09;89.98;102402.97;5037107;28;20315;-78
2021/11/11 02:13:52;;;;;;;75.83;37.07;;;;;;;9.11;89.58;102406.44;5033976;28;20665;-77
2021/11/11 02:16:20;;;;;;;77.97;36.27;;;;;;;9.07;89.62;102402.00;5017005;28;20382;-78
2021/11/11 02:21:38;;;;;;;83.13;38.00;;;;;;;9.03;89.81;102403.50;5007868;28;20215;-82
2021/11/11 02:24:05;;;;;;;80.57;38.77;;;;;;;9.03;90.19;102398.41;4966090;28;20580;-83
2021/11/11 02:26:43;;;;;;;77.83;38.60;;;;;;;9.02;90.41;102400.88;4978922;28;20953;-82
2021/11/11 02:29:17;;;;;;;84.20;39.87;;;;;;;8.98;90.77;102397.31;4963462;28;20269;-84
2021/11/11 02:31:44;;;;;;;89.57;40.67;;;;;;;9.00;90.93;102390.59;4978705;28;20208;-82
2021/11/11 02:34:11;;;;;;;84.50;39.20;;;;;;;8.99;90.99;102398.19;4978658;28;20195;-81
2021/11/11 02:36:55;;;;;;;84.80;38.67;;;;;;;9.00;90.73;102397.38;4994388;28;20203;-81
2021/11/11 02:39:21;;;;;;;86.77;38.33;;;;;;;9.00;91.33;102392.28;4998181;28;20202;-82
2021/11/11 02:41:47;;;;;;;84.37;39.73;;;;;;;8.96;91.18;102393.81;4982150;28;20179;-85
2021/11/11 02:44:15;;;;;;;86.83;39.67;;;;;;;8.98;90.93;102399.84;4998195;28;20195;-81
2021/11/11 02:46:41;;;;;;;83.87;38.57;;;;;;;8.96;90.90;102392.91;4997980;28;20262;-83
2021/11/11 02:49:07;;;;;;;88.23;41.37;;;;;;;8.96;91.45;102392.91;4997886;28;20211;-83
2021/11/11 02:51:32;;;;;;;84.13;39.30;;;;;;;8.98;91.37;102393.88;4997876;28;20568;-82
2021/11/11 02:53:58;;;;;;;95.53;40.13;;;;;;;8.97;91.53;102393.00;4997871;28;20205;-81
2021/11/11 02:56:24;;;;;;;88.43;38.70;;;;;;;8.96;91.51;102390.34;4997379;28;20214;-81
2021/11/11 02:58:50;;;;;;;96.57;41.50;;;;;;;8.95;91.37;102381.84;4997748;28;20187;-84
2021/11/11 03:01:15;;;;;;;95.87;40.03;;;;;;;8.97;91.25;102387.00;5014068;28;20557;-83
2021/11/11 03:03:43;;;;;;;89.07;39.33;;;;;;;8.97;91.51;102385.34;4997083;28;20676;-81
2021/11/11 03:06:10;;;;;;;93.83;40.33;;;;;;;8.96;91.55;102393.81;4981551;28;20179;-82
2021/11/11 03:08:37;;;;;;;89.73;39.90;;;;;;;8.98;91.33;102384.53;4981920;28;20238;-83
2021/11/11 03:11:05;;;;;;;95.90;41.03;;;;;;;8.99;91.72;102390.53;4996805;28;20746;-82
2021/11/11 03:13:37;;;;;;;97.17;40.27;;;;;;;8.97;91.06;102380.22;4997449;28;20187;-80
2021/11/11 03:16:08;;;;;;;86.63;39.67;;;;;;;8.97;91.17;102380.22;5029027;28;20257;-81
2021/11/11 03:18:33;;;;;;;96.40;40.57;;;;;;;8.94;91.28;102377.50;5029054;28;20183;-83
2021/11/11 03:21:00;;;;;;;95.90;41.93;;;;;;;8.96;91.56;102378.47;5014571;28;20221;-81
2021/11/11 03:23:26;;;;;;;97.17;41.87;;;;;;;8.97;91.53;102384.44;4996438;28;20211;-82
2021/11/11 03:25:53;;;;;;;96.97;41.90;;;;;;;8.98;92.04;102383.66;4996354;28;20183;-81
2021/11/11 03:28:25;;;;;;;91.77;40.47;;;;;;;8.97;91.84;102379.34;4997491;28;20179;-82
2021/11/11 03:30:50;;;;;;;101.17;40.87;;;;;;;8.96;91.69;102378.47;4996583;28;20211;-81
2021/11/11 03:33:16;;;;;;;103.13;42.63;;;;;;;8.93;91.92;102380.88;4996697;28;20257;-79
2021/11/11 03:35:45;;;;;;;95.10;42.63;;;;;;;8.93;92.02;102375.75;5029132;28;20190;-81
2021/11/11 03:38:11;;;;;;;90.83;41.07;;;;;;;8.96;91.71;102377.59;4996843;28;20561;-80
2021/11/11 03:40:41;;;;;;;90.23;40.57;;;;;;;8.96;91.54;102380.13;4996878;28;20286;-84
2021/11/11 03:43:10;;;;;;;87.27;39.60;;;;;;;8.95;91.94;102379.28;5013938;28;20741;-80
2021/11/11 03:45:46;;;;;;;85.83;39.37;;;;;;;8.97;91.01;102369.13;4997599;28;20522;-80
2021/11/11 03:48:11;;;;;;;78.77;38.93;;;;;;;8.97;91.59;102367.44;4996138;28;20190;-81
2021/11/11 03:50:39;;;;;;;87.77;40.50;;;;;;;8.95;91.72;102373.28;5028802;28;20208;-82
2021/11/11 03:53:08;;;;;;;92.83;40.43;;;;;;;8.93;91.94;102370.66;4996263;28;20186;-80
2021/11/11 03:55:34;;;;;;;84.77;40.07;;;;;;;8.95;92.07;102375.84;4996419;28;20182;-82
2021/11/11 03:58:01;;;;;;;86.30;39.83;;;;;;;8.95;91.20;102375.84;4996176;28;20230;-80
2021/11/11 04:00:29;;;;;;;89.40;39.53;;;;;;;8.94;91.68;102379.19;4995464;28;20208;-80
2021/11/11 04:02:59;;;;;;;98.93;41.63;;;;;;;8.93;92.15;102379.97;5011692;28;20266;-80
2021/11/11 04:05:24;;;;;;;97.70;42.97;;;;;;;8.93;91.82;102383.41;4995604;28;20282;-81
2021/11/11 04:07:53;;;;;;;84.67;39.23;;;;;;;8.94;91.59;102385.16;4995471;28;20600;-80
2021/11/11 04:10:19;;;;;;;83.33;39.60;;;;;;;8.96;92.08;102378.47;4995465;28;20253;-80
2021/11/11 04:12:48;;;;;;;78.73;39.97;;;;;;;8.93;91.60;102374.88;4995464;28;20286;-80
2021/11/11 04:15:14;;;;;;;78.23;37.40;;;;;;;8.93;91.16;102373.19;5028425;28;20184;-81
2021/11/11 04:17:40;;;;;;;81.70;39.80;;;;;;;8.93;91.63;102378.31;4995335;28;20214;-82
2021/11/11 04:20:06;;;;;;;81.63;39.77;;;;;;;8.95;91.26;102376.72;4995243;28;20218;-80
2021/11/11 04:22:32;;;;;;;79.00;39.43;;;;;;;8.95;91.15;102376.72;4995374;28;20190;-80
2021/11/11 04:25:00;;;;;;;70.37;37.67;;;;;;;8.94;91.45;102372.41;4995683;28;20195;-82
2021/11/11 04:27:36;;;;;;;76.93;39.07;;;;;;;8.94;91.76;102372.41;4995089;28;20554;-79
2021/11/11 04:30:28;;;;;;;74.57;37.50;;;;;;;8.95;91.35;102363.97;4995070;28;20264;-84
2021/11/11 04:32:49;;;;;;;76.93;40.00;;;;;;;8.93;90.91;102372.31;4994935;28;20560;-81
2021/11/11 04:35:15;;;;;;;75.67;38.87;;;;;;;8.94;91.77;102363.88;4979158;28;20205;-80
2021/11/11 04:37:48;;;;;;;79.23;40.77;;;;;;;8.94;91.29;102369.84;4994314;28;20278;-80
2021/11/11 04:43:11;;;;;;;72.93;38.43;;;;;;;8.95;91.38;102366.50;4994581;28;20183;-80
2021/11/11 04:51:07;;;;;;;73.93;39.47;;;;;;;8.93;91.70;102368.09;4994916;28;20690;-81
2021/11/11 05:04:16;;;;;;;69.77;39.23;;;;;;;8.96;91.83;102365.69;4983154;28;20648;-80
2021/11/11 05:06:42;;;;;;;71.40;38.87;;;;;;;8.94;91.68;102358.75;4994585;28;20199;-81
2021/11/11 05:09:07;;;;;;;74.33;41.17;;;;;;;8.93;92.39;102359.53;4995145;28;20336;-80
2021/11/11 05:11:35;;;;;;;74.37;41.37;;;;;;;8.94;92.20;102369.84;5027235;28;20191;-82
2021/11/11 05:14:03;;;;;;;76.27;40.83;;;;;;;8.95;92.43;102373.28;4994855;28;20573;-81
2021/11/11 05:16:29;;;;;;;81.53;41.33;;;;;;;8.94;92.44;102372.41;4994589;28;20226;-79
2021/11/11 05:18:54;;;;;;;75.57;39.93;;;;;;;8.94;92.47;102369.84;4978685;28;20191;-83
2021/11/11 05:21:20;;;;;;;73.83;39.90;;;;;;;8.96;92.18;102372.47;4994737;28;20220;-80
2021/11/11 05:23:45;;;;;;;71.83;39.43;;;;;;;8.95;91.76;102375.84;5018631;28;20557;-82
2021/11/11 05:26:14;;;;;;;76.60;40.83;;;;;;;8.93;92.24;102372.31;5026592;28;20270;-82
2021/11/11 05:28:40;;;;;;;76.60;40.03;;;;;;;8.97;92.29;102371.66;4994123;28;20580;-79
2021/11/11 05:31:11;;;;;;;71.60;39.40;;;;;;;8.97;92.38;102369.13;5027160;28;20217;-83
2021/11/11 05:33:37;;;;;;;70.40;39.17;;;;;;;8.97;92.44;102370.00;5010770;28;20186;-80
2021/11/11 05:36:03;;;;;;;73.90;38.73;;;;;;;8.97;92.38;102362.34;4978044;28;20202;-82
2021/11/11 05:38:28;;;;;;;70.33;39.57;;;;;;;8.98;92.27;102365.78;4994324;28;20561;-79
2021/11/11 05:40:54;;;;;;;73.63;39.43;;;;;;;8.98;92.48;102374.31;4994062;28;20241;-81
2021/11/11 05:43:19;;;;;;;74.37;39.87;;;;;;;8.98;92.72;102374.31;4994329;28;20183;-79
2021/11/11 05:45:45;;;;;;;69.70;38.80;;;;;;;8.99;92.49;102380.31;4996056;28;20207;-79
2021/11/11 05:48:10;;;;;;;72.97;39.20;;;;;;;8.98;92.60;102374.31;4998114;28;20233;-82
2021/11/11 05:50:39;;;;;;;75.63;41.03;;;;;;;8.98;92.59;102369.19;4997798;28;20202;-82
2021/11/11 05:53:05;;;;;;;68.07;38.20;;;;;;;8.98;92.25;102366.66;4997892;28;20645;-81
2021/11/11 05:55:30;;;;;;;70.60;38.53;;;;;;;9.01;92.33;102371.03;4997921;28;20213;-81
2021/11/11 05:57:56;;;;;;;76.60;39.90;;;;;;;9.00;92.67;102366.72;4998107;28;20207;-81
2021/11/11 06:00:22;;;;;;;71.90;39.23;;;;;;;9.01;92.60;102369.38;4997768;28;20242;-84
2021/11/11 06:03:00;;;;;;;75.63;39.50;;;;;;;9.02;92.12;102376.22;4997945;28;20191;-82
2021/11/11 06:05:26;;;;;;;77.33;40.23;;;;;;;9.03;92.38;102372.84;4997087;28;20195;-84
2021/11/11 06:07:53;;;;;;;78.23;40.07;;;;;;;9.05;92.28;102375.50;5016820;28;20179;-83
2021/11/11 06:10:19;;;;;;;75.43;40.07;;;;;;;9.04;92.82;102377.16;4998390;28;20288;-82
2021/11/11 06:12:44;;;;;;;77.00;40.17;;;;;;;9.05;92.41;102370.38;4998359;28;20190;-84
2021/11/11 06:15:10;;;;;;;71.17;36.83;;;;;;;9.06;92.30;102373.03;5031187;28;20194;-81
2021/11/11 06:17:36;;;;;;;68.47;38.13;;;;;;;9.06;91.95;102375.56;5030869;28;20211;-83
2021/11/11 06:20:19;;;;;;;73.00;39.20;;;;;;;9.07;92.32;102371.34;4998099;28;20714;-82
2021/11/11 06:22:46;;;;;;;73.33;38.57;;;;;;;9.08;92.66;102373.09;4998002;28;20191;-83
2021/11/11 06:25:14;;;;;;;76.03;39.47;;;;;;;9.08;92.58;102373.97;5030715;28;20183;-81
2021/11/11 06:27:42;;;;;;;78.87;39.50;;;;;;;9.08;92.67;102373.97;4997950;28;20604;-82
2021/11/11 06:30:07;;;;;;;78.77;38.87;;;;;;;9.08;92.71;102385.88;4997771;28;20215;-83
2021/11/11 06:32:34;;;;;;;81.90;40.33;;;;;;;9.10;93.16;102391.94;4997838;28;20195;-82
2021/11/11 06:35:00;;;;;;;76.57;38.57;;;;;;;9.10;92.43;102391.94;4997854;28;20566;-82
2021/11/11 06:37:25;;;;;;;81.07;39.13;;;;;;;9.10;92.25;102394.47;4996994;28;20211;-83
2021/11/11 06:39:51;;;;;;;73.23;38.00;;;;;;;9.12;93.17;102393.75;5015144;28;20203;-83
2021/11/11 06:42:16;;;;;;;72.23;37.43;;;;;;;9.13;92.41;102404.88;4997229;28;20192;-83
2021/11/11 06:44:46;;;;;;;75.13;37.03;;;;;;;9.14;92.42;102392.19;5013320;28;20193;-82
2021/11/11 06:47:11;;;;;;;71.53;37.70;;;;;;;9.14;92.59;102402.41;5013715;28;20183;-79
2021/11/11 06:49:36;;;;;;;69.60;36.37;;;;;;;9.15;92.87;102404.16;4996642;28;20207;-81
2021/11/11 06:52:04;;;;;;;77.17;39.10;;;;;;;9.15;92.88;102403.25;4997116;28;20332;-83
2021/11/11 06:54:30;;;;;;;74.40;38.40;;;;;;;9.16;92.37;102403.34;4997386;28;20613;-82
2021/11/11 06:56:55;;;;;;;73.30;37.30;;;;;;;9.17;92.15;102410.19;5013281;28;20223;-82
2021/11/11 06:59:21;;;;;;;74.10;36.87;;;;;;;9.19;92.40;102405.16;4997067;28;20207;-81
2021/11/11 07:01:46;;;;;;;66.37;35.47;;;;;;;9.18;92.36;102411.97;5029502;28;20274;-82
2021/11/11 07:04:11;;;;;;;69.50;37.47;;;;;;;9.21;92.56;102409.53;4996949;28;20266;-84
2021/11/11 07:06:37;;;;;;;65.27;35.27;;;;;;;9.23;92.97;102404.53;4996277;28;20662;-83
2021/11/11 07:09:02;;;;;;;70.70;36.33;;;;;;;9.24;92.43;102403.72;5012694;28;20659;-83
2021/11/11 07:11:28;;;;;;;67.30;37.10;;;;;;;9.24;92.93;102396.94;4996549;28;20622;-84
2021/11/11 07:13:53;;;;;;;69.63;36.27;;;;;;;9.27;92.93;102398.75;5014259;28;20199;-82
2021/11/11 07:16:19;;;;;;;67.67;35.67;;;;;;;9.27;92.15;102409.84;4996147;28;20261;-82
2021/11/11 07:18:44;;;;;;;65.57;35.27;;;;;;;9.26;92.48;102408.09;5029003;28;20562;-86
2021/11/11 07:21:10;;;;;;;67.33;36.40;;;;;;;9.27;92.29;102406.44;5012490;28;20215;-82
2021/11/11 07:23:35;;;;;;;68.07;36.57;;;;;;;9.30;92.42;102407.44;4996071;28;20187;-82
2021/11/11 07:26:00;;;;;;;65.90;36.33;;;;;;;9.29;92.41;102408.25;4995999;28;20194;-85
2021/11/11 07:28:26;;;;;;;65.97;35.70;;;;;;;9.30;92.94;102415.13;4996173;28;20195;-81
2021/11/11 07:30:51;;;;;;;66.70;36.87;;;;;;;9.33;91.93;102414.38;4996000;28;20253;-83
2021/11/11 07:33:18;;;;;;;63.17;34.73;;;;;;;9.34;92.21;102417.03;5012616;28;20202;-81
2021/11/11 07:35:44;;;;;;;65.23;35.67;;;;;;;9.35;92.33;102412.81;4995750;28;20207;-83
2021/11/11 07:38:11;;;;;;;59.43;33.73;;;;;;;9.35;92.37;102416.22;4995767;28;20298;-80
2021/11/11 07:40:38;;;;;;;60.33;34.63;;;;;;;9.36;92.36;102412.84;4995931;28;20203;-83
2021/11/11 07:43:04;;;;;;;67.10;36.87;;;;;;;9.39;92.41;102413.03;5012070;28;20240;-82
2021/11/11 07:45:34;;;;;;;63.10;35.63;;;;;;;9.40;92.38;102407.09;5011299;28;20176;-82
2021/11/11 07:48:02;;;;;;;59.83;34.00;;;;;;;9.41;91.99;102408.88;5011907;28;20221;-79
2021/11/11 07:50:33;;;;;;;62.93;36.20;;;;;;;9.43;92.74;102409.81;4995558;28;20581;-79
2021/11/11 07:53:00;;;;;;;63.73;34.57;;;;;;;9.42;91.73;102409.72;4995564;28;20607;-80
2021/11/11 07:55:27;;;;;;;63.77;35.33;;;;;;;9.44;91.97;102403.88;5011946;28;20225;-80
2021/11/11 07:57:53;;;;;;;64.93;36.17;;;;;;;9.48;92.25;102413.47;4995225;28;20284;-83
2021/11/11 08:00:19;;;;;;;68.63;36.90;;;;;;;9.53;91.96;102423.91;4995131;28;20215;-82
2021/11/11 08:02:46;;;;;;;64.17;37.07;;;;;;;9.56;92.21;102422.41;4995394;28;20187;-81
2021/11/11 08:05:14;;;;;;;66.90;37.97;;;;;;;9.60;91.45;102424.31;4995166;28;20215;-83
2021/11/11 08:07:43;;;;;;;73.67;38.70;;;;;;;9.63;91.65;102418.47;5027764;28;20176;-82
2021/11/11 08:10:09;;;;;;;66.90;36.00;;;;;;;9.63;91.38;102416.75;5012792;28;20203;-80
2021/11/11 08:12:34;;;;;;;66.80;37.87;;;;;;;9.65;91.18;102417.72;4995227;28;20749;-82
2021/11/11 08:14:59;;;;;;;69.83;37.43;;;;;;;9.68;91.28;102417.00;5012684;28;20656;-81
2021/11/11 08:17:25;;;;;;;73.23;39.53;;;;;;;9.69;91.59;102422.19;4995097;28;20234;-83
2021/11/11 08:19:55;;;;;;;69.27;38.87;;;;;;;9.66;91.97;102426.25;4995053;28;20231;-79
2021/11/11 08:22:23;;;;;;;72.43;38.97;;;;;;;9.67;92.17;102428.91;5012648;28;20557;-80
2021/11/11 08:24:48;;;;;;;71.27;38.33;;;;;;;9.74;91.74;102427.50;4994995;28;20180;-86
2021/11/11 08:27:15;;;;;;;75.40;42.07;;;;;;;9.77;91.67;102425.13;5010962;28;20190;-81
2021/11/11 08:29:42;;;;;;;74.00;39.70;;;;;;;9.74;91.81;102430.97;4994713;28;20257;-86
2021/11/11 08:32:08;;;;;;;75.27;40.77;;;;;;;9.74;91.44;102423.28;4995921;28;20725;-83
2021/11/11 08:34:33;;;;;;;77.30;41.07;;;;;;;9.74;91.60;102424.97;5012723;28;20183;-83
2021/11/11 08:36:59;;;;;;;75.13;42.53;;;;;;;9.71;91.01;102419.69;4994762;28;20211;-85
2021/11/11 08:39:24;;;;;;;76.13;41.57;;;;;;;9.71;91.45;102410.34;5011017;28;20203;-82
2021/11/11 08:41:52;;;;;;;77.47;41.57;;;;;;;9.74;91.67;102409.59;4994982;28;20195;-81
2021/11/11 08:44:19;;;;;;;74.80;42.23;;;;;;;9.74;91.13;102407.94;4994718;28;20610;-84
2021/11/11 08:46:45;;;;;;;80.13;42.43;;;;;;;9.81;90.92;102411.66;5010625;28;20258;-80
2021/11/11 08:49:10;;;;;;;69.73;42.43;;;;;;;9.87;91.30;102409.38;4994600;28;20688;-81
2021/11/11 08:51:36;;;;;;;75.90;41.83;;;;;;;9.83;90.73;102405.81;4994783;28;20187;-83
2021/11/11 08:54:04;;;;;;;77.77;41.30;;;;;;;9.89;90.63;102411.22;4994896;28;20557;-83
2021/11/11 08:56:31;;;;;;;67.73;40.17;;;;;;;9.94;90.40;102407.19;4994484;28;20631;-82
2021/11/11 08:58:58;;;;;;;73.80;39.23;;;;;;;9.94;90.37;102409.75;5012039;28;20192;-82
2021/11/11 09:01:24;;;;;;;74.83;42.33;;;;;;;9.88;90.57;102412.03;4994489;28;20274;-81
2021/11/11 09:03:49;;;;;;;76.40;41.00;;;;;;;9.87;90.37;102414.50;5027057;28;20573;-81
2021/11/11 09:06:14;;;;;;;73.73;41.17;;;;;;;9.90;90.75;102420.63;4994402;28;20194;-81
2021/11/11 09:08:40;;;;;;;76.23;41.30;;;;;;;9.89;90.36;102413.78;4994334;28;20237;-82
2021/11/11 09:11:05;;;;;;;71.93;39.97;;;;;;;9.91;90.94;102412.16;4994229;28;20226;-82
2021/11/11 09:13:33;;;;;;;64.70;37.97;;;;;;;9.96;90.34;102415.81;4994069;28;20682;-81
2021/11/11 09:15:59;;;;;;;66.47;39.57;;;;;;;9.95;90.10;102411.50;4994003;28;20554;-83
2021/11/11 09:18:25;;;;;;;71.33;39.13;;;;;;;10.00;90.30;102414.28;4994400;28;20195;-81
2021/11/11 09:20:50;;;;;;;70.07;39.13;;;;;;;10.03;90.00;102406.72;4996328;28;20274;-87
2021/11/11 09:23:16;;;;;;;65.97;38.30;;;;;;;10.07;89.57;102407.00;5015885;28;20628;-82
2021/11/11 09:25:41;;;;;;;67.10;38.13;;;;;;;10.04;90.04;102414.53;5014133;28;20206;-82
2021/11/11 09:28:06;;;;;;;70.87;38.70;;;;;;;10.06;89.68;102410.38;5017058;28;20183;-84
2021/11/11 09:30:36;;;;;;;66.77;38.37;;;;;;;10.00;90.22;102409.16;4999332;28;20789;-82
2021/11/11 09:33:02;;;;;;;67.20;37.20;;;;;;;10.02;90.20;102410.09;4999111;28;20278;-82
2021/11/11 09:35:27;;;;;;;62.10;35.90;;;;;;;10.07;89.82;102401.88;5016477;28;20187;-82
2021/11/11 09:37:53;;;;;;;65.43;36.90;;;;;;;10.16;89.93;102401.41;4998915;28;20977;-81
2021/11/11 09:40:22;;;;;;;55.00;33.77;;;;;;;10.22;89.45;102396.56;5016506;28;20214;-82
2021/11/11 09:42:48;;;;;;;57.90;33.27;;;;;;;10.28;89.47;102401.97;5015560;28;20191;-84
2021/11/11 09:45:17;;;;;;;53.67;33.20;;;;;;;10.29;89.24;102396.94;4999256;28;20190;-84
2021/11/11 09:47:46;;;;;;;54.70;33.93;;;;;;;10.30;89.56;102395.22;5014756;28;20195;-82
2021/11/11 09:50:12;;;;;;;56.87;33.67;;;;;;;10.37;88.97;102395.56;4998120;28;20211;-85
2021/11/11 09:52:41;;;;;;;54.80;31.13;;;;;;;10.39;89.06;102398.22;5015118;28;20195;-87
2021/11/11 10:00:42;;;;;;;55.27;31.20;;;;;;;10.47;88.79;102396.88;4997878;28;20214;-83
2021/11/11 10:03:08;;;;;;;52.90;30.73;;;;;;;10.50;88.57;102397.03;5030277;28;20194;-84
2021/11/11 10:05:33;;;;;;;53.50;30.27;;;;;;;10.52;88.31;102398.84;5000111;28;20207;-81
2021/11/11 10:08:02;;;;;;;51.00;30.20;;;;;;;10.54;88.44;102399.78;4999102;28;20277;-85
2021/11/11 10:10:31;;;;;;;53.00;30.67;;;;;;;10.54;88.22;102402.34;4999708;28;20318;-83
2021/11/11 10:13:18;;;;;;;51.13;29.93;;;;;;;10.55;88.21;102403.22;4982598;28;20183;-83
2021/11/11 10:16:08;;;;;;;51.30;29.37;;;;;;;10.52;88.88;102405.63;4982498;28;20187;-83
2021/11/11 10:18:45;;;;;;;48.60;29.13;;;;;;;10.50;88.30;102402.16;5016304;28;20290;-84
2021/11/11 10:21:31;;;;;;;53.93;29.40;;;;;;;10.53;88.82;102405.72;5011373;28;20259;-81
2021/11/11 10:24:12;;;;;;;48.30;28.13;;;;;;;10.50;88.52;102408.13;4978980;28;20563;-83
2021/11/11 10:26:41;;;;;;;48.70;27.30;;;;;;;10.52;88.69;102403.06;4986944;28;20198;-84
2021/11/11 10:29:30;;;;;;;60.53;28.73;;;;;;;10.49;88.90;102405.50;4997990;28;20753;-82
2021/11/11 10:32:08;;;;;;;51.30;29.30;;;;;;;10.47;89.64;102404.56;4978649;28;20192;-82
2021/11/11 10:34:42;;;;;;;50.77;28.30;;;;;;;10.51;89.23;102407.31;4983687;28;20558;-81
2021/11/11 10:37:08;;;;;;;52.27;28.67;;;;;;;10.42;89.14;102409.47;4997881;28;20250;-80
2021/11/11 10:39:34;;;;;;;51.03;27.13;;;;;;;10.46;88.99;102408.78;4997535;28;20238;-84
2021/11/11 10:42:11;;;;;;;51.07;28.97;;;;;;;10.41;89.42;102406.84;5013860;28;20278;-81
2021/11/11 10:44:37;;;;;;;49.20;28.10;;;;;;;10.46;89.45;102402.81;5014501;28;20253;-82
2021/11/11 10:47:07;;;;;;;55.07;28.57;;;;;;;10.43;89.74;102398.44;4997829;28;20195;-83
2021/11/11 10:49:38;;;;;;;51.23;28.53;;;;;;;10.47;89.34;102405.41;5014894;28;20294;-80
2021/11/11 10:52:24;;;;;;;56.30;29.43;;;;;;;10.42;89.37;102399.22;4997602;28;20195;-84
2021/11/11 10:55:02;;;;;;;53.20;27.93;;;;;;;10.36;89.90;102400.63;5014665;28;20721;-84
2021/11/11 10:57:41;;;;;;;52.30;26.77;;;;;;;10.39;89.71;102399.09;4997290;28;20222;-84
2021/11/11 11:00:09;;;;;;;49.47;27.70;;;;;;;10.40;89.92;102390.59;4997194;28;20213;-82
2021/11/11 11:02:50;;;;;;;53.77;28.57;;;;;;;10.35;89.76;102386.97;4996799;28;20261;-82
2021/11/11 11:05:16;;;;;;;50.37;28.07;;;;;;;10.40;90.09;102390.59;4997221;28;20191;-82
2021/11/11 11:07:43;;;;;;;53.67;29.57;;;;;;;10.39;89.66;102382.84;5014522;28;20214;-83
2021/11/11 11:10:10;;;;;;;54.67;27.87;;;;;;;10.34;90.03;102389.44;5014869;28;20207;-85
2021/11/11 11:12:35;;;;;;;53.57;29.03;;;;;;;10.40;89.95;102382.91;4996841;28;20245;-82
2021/11/11 11:15:00;;;;;;;53.77;29.00;;;;;;;10.39;90.11;102380.28;4997085;28;20203;-82
2021/11/11 11:17:27;;;;;;;47.83;26.87;;;;;;;10.42;90.01;102378.72;5014508;28;20215;-82
2021/11/11 11:20:22;;;;;;;47.83;27.63;;;;;;;10.47;89.72;102376.38;4996369;28;20223;-84
2021/11/11 11:22:47;;;;;;;48.67;25.50;;;;;;;10.58;89.50;102376.06;4996720;28;20195;-84
2021/11/11 11:25:13;;;;;;;44.60;24.50;;;;;;;10.58;89.07;102373.50;4996805;28;20924;-83
2021/11/11 11:27:38;;;;;;;43.97;25.47;;;;;;;10.61;88.36;102373.63;4996985;28;20190;-82
2021/11/11 11:30:17;;;;;;;44.90;25.07;;;;;;;10.67;88.61;102366.22;4996619;28;20211;-85
2021/11/11 11:32:45;;;;;;;44.57;24.87;;;;;;;10.70;88.51;102363.75;4996391;28;20679;-82
2021/11/11 11:35:12;;;;;;;43.27;23.73;;;;;;;10.77;88.44;102370.03;4995941;28;20198;-82
2021/11/11 11:37:38;;;;;;;37.43;22.63;;;;;;;10.70;88.70;102365.47;4996375;28;20296;-80
2021/11/11 11:40:10;;;;;;;34.53;21.97;;;;;;;10.73;88.40;102361.34;4996380;28;20266;-81
2021/11/11 11:42:38;;;;;;;45.50;24.77;;;;;;;10.65;88.24;102370.38;4995718;28;20215;-82
2021/11/11 11:45:08;;;;;;;39.50;24.13;;;;;;;10.60;88.45;102366.75;4995920;28;20214;-80